Time;durP1;ratioP1;P1;durP2;ratioP2;P2;SDS_P1;SDS_P2;PMS_P1;PMS_P2;Temp;Humidity;BMP_temperature;BMP_pressure;BME280_temperature;BME280_humidity;BME280_pressure;Samples;Min_cycle;Max_cycle;Signal;HPM_P1;HPM_P2
2022/11/29 00:00:44;;;;;;;52.05;18.65;;;9.70;99.90;;;;;;5026189;28;20041;-82
2022/11/29 00:03:10;;;;;;;39.65;19.13;;;9.70;99.90;;;;;;5032601;28;20515;-81
2022/11/29 00:05:36;;;;;;;29.83;17.30;;;9.70;99.90;;;;;;5013527;28;20114;-81
2022/11/29 00:08:02;;;;;;;38.63;16.83;;;9.60;99.90;;;;;;5015069;28;20087;-82
2022/11/29 00:10:27;;;;;;;50.95;20.98;;;9.60;99.90;;;;;;5014948;28;20053;-83
2022/11/29 00:12:53;;;;;;;38.08;18.58;;;9.60;99.90;;;;;;5014045;28;20780;-82
2022/11/29 00:15:19;;;;;;;47.72;19.23;;;9.60;99.90;;;;;;5015523;28;20819;-82
2022/11/29 00:17:44;;;;;;;32.70;15.23;;;9.60;99.90;;;;;;5014632;28;20060;-82
2022/11/29 00:20:11;;;;;;;23.73;11.45;;;9.60;99.90;;;;;;5024959;28;20536;-83
2022/11/29 00:22:37;;;;;;;38.28;14.68;;;9.60;99.90;;;;;;5014485;28;20049;-83
2022/11/29 00:25:04;;;;;;;41.60;17.83;;;9.60;99.90;;;;;;5023177;28;20034;-82
2022/11/29 00:27:31;;;;;;;26.88;13.82;;;9.60;99.90;;;;;;5015615;28;20046;-83
2022/11/29 00:29:56;;;;;;;33.90;15.35;;;9.60;99.90;;;;;;5018267;28;20071;-82
2022/11/29 00:32:22;;;;;;;29.70;13.45;;;9.50;99.90;;;;;;5012941;28;20049;-83
2022/11/29 00:34:48;;;;;;;35.75;16.02;;;9.60;99.90;;;;;;5018665;28;20057;-84
2022/11/29 00:37:14;;;;;;;49.80;19.42;;;9.60;99.90;;;;;;5030143;28;20053;-82
2022/11/29 00:39:40;;;;;;;27.15;13.63;;;9.50;99.90;;;;;;5019973;28;20074;-83
2022/11/29 00:42:06;;;;;;;31.67;15.35;;;9.50;99.90;;;;;;5018510;28;20048;-83
2022/11/29 00:44:31;;;;;;;42.63;15.70;;;9.60;99.90;;;;;;5013591;28;20135;-82
2022/11/29 00:46:57;;;;;;;38.22;16.27;;;9.60;99.90;;;;;;5016666;28;20049;-83
2022/11/29 00:49:23;;;;;;;48.63;17.45;;;9.60;99.90;;;;;;5019407;28;20052;-81
2022/11/29 00:51:48;;;;;;;49.88;17.15;;;9.60;99.90;;;;;;5018369;28;20478;-82
2022/11/29 00:54:14;;;;;;;25.63;13.02;;;9.50;99.90;;;;;;5014539;28;20045;-82
2022/11/29 00:56:40;;;;;;;31.75;14.70;;;9.50;99.90;;;;;;5017190;28;20045;-81
2022/11/29 00:59:06;;;;;;;38.67;15.77;;;9.50;99.90;;;;;;5013863;28;20103;-80
2022/11/29 01:01:31;;;;;;;34.53;14.98;;;9.50;99.90;;;;;;5016618;28;20591;-82
2022/11/29 01:03:59;;;;;;;30.08;14.85;;;9.50;99.90;;;;;;5016972;28;20049;-82
2022/11/29 01:06:25;;;;;;;51.80;16.70;;;9.50;99.90;;;;;;5018311;28;20049;-82
2022/11/29 01:08:51;;;;;;;42.95;15.95;;;9.50;99.90;;;;;;5021039;28;20057;-81
2022/11/29 01:11:20;;;;;;;69.38;20.05;;;9.50;99.90;;;;;;5022035;28;20871;-82
2022/11/29 01:13:47;;;;;;;50.67;18.08;;;9.50;99.90;;;;;;5021565;28;20053;-82
2022/11/29 01:16:14;;;;;;;36.60;16.27;;;9.50;99.90;;;;;;5012878;28;20049;-83
2022/11/29 01:18:40;;;;;;;33.28;14.98;;;9.50;99.90;;;;;;5009868;28;20131;-82
2022/11/29 01:21:15;;;;;;;28.08;12.57;;;9.50;99.90;;;;;;5015232;28;20041;-82
2022/11/29 01:23:41;;;;;;;34.92;16.08;;;9.40;99.90;;;;;;5015211;28;20049;-81
2022/11/29 01:26:11;;;;;;;28.05;15.05;;;9.40;99.90;;;;;;5020807;28;20525;-82
2022/11/29 01:28:37;;;;;;;30.77;14.52;;;9.40;99.90;;;;;;5015890;28;20457;-80
2022/11/29 01:31:12;;;;;;;40.60;17.10;;;9.40;99.90;;;;;;5015547;28;20510;-81
2022/11/29 01:33:38;;;;;;;33.42;15.63;;;9.50;99.90;;;;;;5016937;28;20164;-80
2022/11/29 01:36:05;;;;;;;34.35;15.13;;;9.50;99.90;;;;;;5017235;28;20080;-83
2022/11/29 01:38:31;;;;;;;29.20;13.98;;;9.40;99.90;;;;;;5016953;28;20179;-81
2022/11/29 01:41:04;;;;;;;30.40;13.75;;;9.40;99.90;;;;;;5016546;28;20049;-81
2022/11/29 01:43:30;;;;;;;43.85;18.13;;;9.40;99.90;;;;;;5012473;28;20041;-80
2022/11/29 01:45:56;;;;;;;56.42;17.77;;;9.40;99.90;;;;;;5017487;28;20145;-80
2022/11/29 01:48:29;;;;;;;28.80;14.45;;;9.40;99.90;;;;;;5017865;28;20041;-82
2022/11/29 01:50:59;;;;;;;32.88;14.15;;;9.40;99.90;;;;;;5016422;28;20045;-81
2022/11/29 01:53:26;;;;;;;32.55;16.23;;;9.40;99.90;;;;;;5016855;28;20053;-84
2022/11/29 01:55:59;;;;;;;30.80;16.20;;;9.40;99.90;;;;;;5017072;28;20088;-82
2022/11/29 01:58:25;;;;;;;36.72;15.90;;;9.40;99.90;;;;;;5018338;28;20053;-81
2022/11/29 02:00:51;;;;;;;45.40;16.13;;;9.30;99.90;;;;;;5016488;28;20053;-82
2022/11/29 02:03:18;;;;;;;36.08;15.05;;;9.40;99.90;;;;;;5016102;28;20107;-84
2022/11/29 02:05:47;;;;;;;34.78;17.48;;;9.40;99.90;;;;;;5020803;28;20103;-81
2022/11/29 02:08:17;;;;;;;30.60;13.45;;;9.40;99.90;;;;;;5017791;28;20489;-82
2022/11/29 02:11:24;;;;;;;38.30;15.30;;;9.40;99.90;;;;;;5023079;28;20072;-81
2022/11/29 02:14:08;;;;;;;29.88;14.98;;;9.30;99.90;;;;;;4953342;28;20102;-83
2022/11/29 02:16:49;;;;;;;30.90;15.23;;;9.30;99.90;;;;;;4954800;28;20511;-82
2022/11/29 02:19:45;;;;;;;29.85;15.70;;;9.30;99.90;;;;;;4999638;28;20106;-84
2022/11/29 02:22:32;;;;;;;28.95;15.35;;;9.40;99.90;;;;;;5015730;28;20132;-83
2022/11/29 02:25:16;;;;;;;28.40;13.85;;;9.40;99.90;;;;;;5016183;28;20072;-82
2022/11/29 02:27:41;;;;;;;;;;;9.30;99.90;;;;;;5016387;28;20066;-82
2022/11/29 02:30:39;;;;;;;28.13;14.75;;;9.10;99.90;;;;;;5013788;28;19929;-81
2022/11/29 02:33:24;;;;;;;30.85;15.00;;;9.30;99.90;;;;;;5012518;28;20784;-82
2022/11/29 02:36:05;;;;;;;27.95;14.65;;;9.30;99.90;;;;;;5018794;28;20053;-83
2022/11/29 02:38:52;;;;;;;28.65;15.30;;;9.30;99.90;;;;;;5017834;28;20378;-83
2022/11/29 02:41:21;;;;;;;30.33;16.75;;;9.40;99.90;;;;;;5013633;28;20460;-82
2022/11/29 02:44:05;;;;;;;29.55;13.02;;;9.40;99.90;;;;;;5025326;28;20088;-82
2022/11/29 02:46:46;;;;;;;42.50;19.20;;;9.40;99.90;;;;;;5017992;28;20087;-83
2022/11/29 02:49:22;;;;;;;31.00;13.52;;;9.50;99.90;;;;;;5010401;28;20057;-83
2022/11/29 02:52:17;;;;;;;24.05;13.10;;;9.50;99.90;;;;;;5022385;28;20049;-82
2022/11/29 02:55:00;;;;;;;32.75;16.63;;;9.50;99.90;;;;;;5013928;28;20678;-82
2022/11/29 02:57:47;;;;;;;33.88;14.82;;;9.50;99.90;;;;;;5025139;28;20051;-82
2022/11/29 03:00:17;;;;;;;26.70;13.75;;;9.70;99.90;;;;;;5014333;28;20575;-82
2022/11/29 03:03:01;;;;;;;37.60;16.27;;;9.50;99.90;;;;;;5014003;28;20557;-83
2022/11/29 03:05:39;;;;;;;38.00;15.30;;;9.40;99.90;;;;;;5016502;28;20103;-83
2022/11/29 03:08:19;;;;;;;23.55;13.27;;;9.40;99.90;;;;;;5019140;28;20045;-82
2022/11/29 03:11:11;;;;;;;33.63;15.63;;;9.40;99.90;;;;;;5016192;28;20055;-83
2022/11/29 03:13:55;;;;;;;24.65;13.63;;;9.40;99.90;;;;;;5005921;28;20060;-83
2022/11/29 03:16:46;;;;;;;24.65;13.13;;;9.40;99.90;;;;;;5015944;28;20156;-82
2022/11/29 03:19:15;;;;;;;26.55;13.27;;;9.40;99.90;;;;;;5014562;28;20718;-83
2022/11/29 03:21:54;;;;;;;32.42;14.18;;;9.40;99.90;;;;;;5011444;28;20616;-82
2022/11/29 03:24:29;;;;;;;19.50;12.68;;;9.40;99.90;;;;;;5009721;28;20063;-82
2022/11/29 03:27:02;;;;;;;26.35;13.75;;;9.30;99.90;;;;;;5017424;28;20144;-84
2022/11/29 03:29:55;;;;;;;28.77;12.48;;;9.40;99.90;;;;;;5011811;28;20053;-82
2022/11/29 03:32:48;;;;;;;47.60;16.35;;;9.40;99.90;;;;;;5009352;28;20588;-81
2022/11/29 03:35:19;;;;;;;58.50;17.77;;;9.30;99.90;;;;;;5016204;28;20130;-81
2022/11/29 03:38:07;;;;;;;31.63;13.60;;;9.30;99.90;;;;;;5006588;28;20057;-82
2022/11/29 03:40:45;;;;;;;44.95;15.88;;;9.30;99.90;;;;;;5011748;28;20069;-81
2022/11/29 03:43:21;;;;;;;44.55;15.02;;;9.30;99.90;;;;;;5035268;28;20061;-81
2022/11/29 03:46:11;;;;;;;41.10;15.15;;;9.20;99.90;;;;;;5020751;28;20107;-83
2022/11/29 03:48:44;;;;;;;29.00;12.40;;;9.10;99.90;;;;;;5024519;28;20057;-83
2022/11/29 03:51:45;;;;;;;40.55;16.88;;;9.20;99.90;;;;;;5014718;28;20422;-81
2022/11/29 03:54:15;;;;;;;24.17;10.25;;;9.10;99.90;;;;;;4988576;28;20053;-83
2022/11/29 03:56:41;;;;;;;24.90;12.80;;;9.10;99.90;;;;;;5017004;28;20882;-81
2022/11/29 03:59:19;;;;;;;37.17;13.13;;;9.10;99.90;;;;;;5006800;28;20120;-81
2022/11/29 04:01:53;;;;;;;28.98;13.60;;;9.10;99.90;;;;;;5016868;28;20049;-83
2022/11/29 04:04:50;;;;;;;22.58;12.70;;;9.10;99.90;;;;;;5025602;28;20176;-82
2022/11/29 04:07:38;;;;;;;27.50;13.15;;;9.10;99.90;;;;;;5015495;28;20399;-83
2022/11/29 04:10:26;;;;;;;16.67;11.07;;;9.00;99.90;;;;;;5017454;28;20408;-83
2022/11/29 04:13:34;;;;;;;17.35;10.43;;;9.00;99.90;;;;;;5019403;28;20053;-83
2022/11/29 04:16:03;;;;;;;21.08;11.90;;;9.10;99.90;;;;;;4977710;28;20058;-82
2022/11/29 04:18:47;;;;;;;20.45;11.48;;;9.00;99.90;;;;;;5018107;28;20528;-83
2022/11/29 04:21:38;;;;;;;34.67;12.95;;;10.20;99.90;;;;;;5005670;28;20041;-83
2022/11/29 04:24:50;;;;;;;30.88;13.13;;;9.00;99.90;;;;;;5020200;28;20477;-83
2022/11/29 04:27:40;;;;;;;31.85;13.57;;;8.90;99.90;;;;;;5011587;28;20053;-82
2022/11/29 04:30:22;;;;;;;24.05;11.65;;;9.00;99.90;;;;;;5031759;28;20045;-83
2022/11/29 04:33:17;;;;;;;34.72;14.68;;;8.90;99.90;;;;;;5009692;28;20053;-83
2022/11/29 04:35:57;;;;;;;38.42;13.80;;;8.90;99.90;;;;;;5023697;28;20111;-83
2022/11/29 04:38:40;;;;;;;31.83;13.18;;;8.90;99.90;;;;;;5020899;28;20049;-83
2022/11/29 04:41:30;;;;;;;25.67;14.00;;;8.80;99.90;;;;;;5028288;28;20044;-82
2022/11/29 04:44:10;;;;;;;33.28;13.63;;;8.80;99.90;;;;;;5014384;28;20278;-82
2022/11/29 04:47:06;;;;;;;30.83;13.07;;;8.80;99.90;;;;;;5022200;28;20124;-81
2022/11/29 04:49:48;;;;;;;24.58;12.30;;;8.80;99.90;;;;;;5017060;28;20676;-84
2022/11/29 04:52:35;;;;;;;23.73;11.85;;;8.80;99.90;;;;;;5026434;28;20077;-86
2022/11/29 04:55:34;;;;;;;32.85;13.98;;;8.80;99.90;;;;;;5022763;28;20107;-82
2022/11/29 04:58:23;;;;;;;38.40;13.98;;;8.70;99.90;;;;;;5023569;28;20066;-82
2022/11/29 05:01:25;;;;;;;28.50;13.05;;;8.80;99.90;;;;;;5020221;28;20049;-84
2022/11/29 05:04:20;;;;;;;42.30;14.60;;;8.80;99.90;;;;;;5018488;28;20054;-82
2022/11/29 05:06:52;;;;;;;39.47;13.27;;;8.70;99.90;;;;;;5012820;28;20108;-83
2022/11/29 05:09:35;;;;;;;27.05;13.30;;;8.70;99.90;;;;;;5015315;28;20046;-84
2022/11/29 05:12:26;;;;;;;44.60;15.48;;;8.70;99.90;;;;;;5016361;28;20049;-84
2022/11/29 05:15:01;;;;;;;28.25;11.27;;;8.70;99.90;;;;;;5021866;28;20048;-84
2022/11/29 05:17:46;;;;;;;28.73;11.48;;;8.70;99.90;;;;;;5011758;28;20053;-84
2022/11/29 05:20:18;;;;;;;19.45;10.55;;;8.70;99.90;;;;;;5017134;28;20493;-84
2022/11/29 05:23:24;;;;;;;31.02;13.23;;;8.70;99.90;;;;;;5018824;28;20133;-84
2022/11/29 05:25:56;;;;;;;23.88;11.55;;;8.60;99.90;;;;;;5016359;28;20886;-84
2022/11/29 05:28:45;;;;;;;22.13;11.23;;;8.70;99.90;;;;;;5018614;28;20056;-82
2022/11/29 05:31:17;;;;;;;16.77;9.60;;;8.70;99.90;;;;;;5020111;28;20059;-83
2022/11/29 05:33:58;;;;;;;18.15;10.75;;;8.70;99.90;;;;;;5022617;28;20049;-84
2022/11/29 05:36:53;;;;;;;16.42;9.95;;;8.60;99.90;;;;;;5022408;28;20045;-82
2022/11/29 05:40:14;;;;;;;13.07;9.43;;;8.60;99.90;;;;;;5022771;28;20048;-84
2022/11/29 05:42:52;;;;;;;17.02;9.48;;;8.60;99.90;;;;;;4933776;29;20079;-80
2022/11/29 05:45:43;;;;;;;21.40;9.55;;;8.60;99.90;;;;;;5007047;28;20057;-82
2022/11/29 05:48:28;;;;;;;16.38;9.40;;;8.60;99.90;;;;;;5019096;28;20132;-84
2022/11/29 05:51:26;;;;;;;12.38;8.05;;;8.60;99.90;;;;;;5020658;28;20148;-84
2022/11/29 05:54:23;;;;;;;17.48;9.50;;;8.50;99.90;;;;;;5026215;28;20052;-84
2022/11/29 05:57:04;;;;;;;14.13;9.30;;;8.50;99.90;;;;;;5003337;28;20049;-84
2022/11/29 05:59:31;;;;;;;17.13;9.07;;;8.50;99.90;;;;;;5019572;28;20106;-84
2022/11/29 06:02:25;;;;;;;17.83;9.32;;;8.50;99.90;;;;;;5029540;28;20044;-82
2022/11/29 06:05:18;;;;;;;11.23;7.90;;;8.50;99.90;;;;;;5024172;28;20045;-83
2022/11/29 06:08:03;;;;;;;13.23;8.13;;;8.60;99.90;;;;;;5014356;28;20862;-82
2022/11/29 06:10:32;;;;;;;16.48;9.23;;;8.50;99.90;;;;;;5027748;28;20045;-84
2022/11/29 06:13:04;;;;;;;17.65;9.18;;;8.50;99.90;;;;;;5022846;28;20048;-83
2022/11/29 06:15:36;;;;;;;21.20;10.38;;;8.40;99.90;;;;;;5019764;28;20167;-85
2022/11/29 06:18:22;;;;;;;13.63;9.02;;;8.40;99.90;;;;;;5019754;28;20057;-83
2022/11/29 06:21:11;;;;;;;18.20;9.55;;;8.50;99.90;;;;;;5015456;28;20076;-84
2022/11/29 06:23:49;;;;;;;15.52;7.72;;;8.40;99.90;;;;;;5023347;28;20053;-82
2022/11/29 06:26:51;;;;;;;13.57;8.45;;;8.70;99.90;;;;;;5023967;28;20045;-83
2022/11/29 06:29:54;;;;;;;19.33;10.05;;;8.40;99.90;;;;;;5023320;28;20119;-82
2022/11/29 06:32:33;;;;;;;14.13;9.27;;;8.40;99.90;;;;;;5021579;28;20051;-84
2022/11/29 06:35:15;;;;;;;14.95;9.05;;;8.40;99.90;;;;;;5023598;28;20049;-84
2022/11/29 06:37:47;;;;;;;16.42;8.63;;;8.50;99.90;;;;;;5018473;28;20056;-82
2022/11/29 06:40:15;;;;;;;17.60;9.98;;;8.40;99.90;;;;;;5022763;28;20049;-84
2022/11/29 06:42:41;;;;;;;19.00;9.73;;;8.40;99.90;;;;;;5028973;28;20045;-84
2022/11/29 06:45:11;;;;;;;16.17;9.00;;;8.40;99.90;;;;;;5020405;28;20099;-82
2022/11/29 06:47:41;;;;;;;16.75;9.55;;;8.40;99.90;;;;;;5021351;28;20053;-83
2022/11/29 06:50:27;;;;;;;13.15;8.10;;;8.40;99.90;;;;;;5021998;28;20049;-84
2022/11/29 06:53:03;;;;;;;14.45;8.50;;;8.30;99.90;;;;;;5017581;28;20064;-83
2022/11/29 06:55:51;;;;;;;22.23;9.38;;;8.30;99.90;;;;;;5020284;28;20059;-84
2022/11/29 06:58:23;;;;;;;14.35;9.52;;;8.30;99.90;;;;;;5017134;28;20046;-84
2022/11/29 07:01:14;;;;;;;19.65;9.40;;;8.30;99.90;;;;;;5018872;28;20046;-83
2022/11/29 07:04:21;;;;;;;13.52;7.88;;;8.30;99.90;;;;;;5007951;28;20513;-83
2022/11/29 07:06:47;;;;;;;17.42;8.45;;;8.30;99.90;;;;;;4992599;28;20068;-84
2022/11/29 07:09:19;;;;;;;17.15;8.45;;;8.30;99.90;;;;;;5020802;28;20053;-86
2022/11/29 07:11:45;;;;;;;17.20;10.20;;;8.40;99.90;;;;;;5023859;28;20536;-84
2022/11/29 07:14:12;;;;;;;16.08;9.35;;;8.40;99.90;;;;;;5030087;28;20517;-84
2022/11/29 07:17:07;;;;;;;16.05;10.32;;;8.40;99.90;;;;;;5024852;28;20661;-84
2022/11/29 07:19:53;;;;;;;16.42;9.85;;;8.40;99.90;;;;;;5019137;28;20159;-84
2022/11/29 07:22:44;;;;;;;16.38;10.00;;;8.40;99.90;;;;;;5021772;28;20053;-82
2022/11/29 07:25:24;;;;;;;21.20;12.25;;;8.40;99.90;;;;;;5020184;28;20041;-84
2022/11/29 07:28:17;;;;;;;15.80;10.82;;;8.50;99.90;;;;;;5008846;28;20053;-86
2022/11/29 07:31:11;;;;;;;15.50;10.55;;;8.40;99.90;;;;;;5004691;28;20057;-81
2022/11/29 07:33:53;;;;;;;15.60;8.52;;;8.40;99.90;;;;;;5014216;28;20045;-84
2022/11/29 07:36:44;;;;;;;16.30;10.35;;;8.40;99.90;;;;;;5015526;28;20049;-82
2022/11/29 07:39:32;;;;;;;19.20;10.10;;;8.60;99.90;;;;;;4979260;28;20097;-81
2022/11/29 07:42:41;;;;;;;20.70;12.05;;;8.40;99.90;;;;;;5017628;28;20049;-82
2022/11/29 07:45:30;;;;;;;17.48;9.18;;;8.40;99.90;;;;;;5003289;28;20045;-81
2022/11/29 07:47:56;;;;;;;17.60;11.63;;;8.30;99.90;;;;;;5009508;28;20053;-81
2022/11/29 07:50:23;;;;;;;16.73;10.80;;;8.40;99.90;;;;;;5018455;28;20048;-81
2022/11/29 07:52:49;;;;;;;17.10;10.90;;;8.40;99.90;;;;;;5018691;28;20224;-81
2022/11/29 07:55:18;;;;;;;16.05;10.80;;;8.50;99.90;;;;;;5018639;28;20045;-81
2022/11/29 07:57:44;;;;;;;16.80;11.13;;;8.50;99.90;;;;;;5006064;28;20861;-80
2022/11/29 08:00:10;;;;;;;16.20;9.30;;;8.50;99.90;;;;;;5020130;28;20064;-82
2022/11/29 08:02:36;;;;;;;14.70;10.07;;;8.50;99.90;;;;;;5021661;28;20049;-82
2022/11/29 08:05:02;;;;;;;27.10;12.77;;;8.50;99.90;;;;;;5022315;28;20371;-82
2022/11/29 08:07:29;;;;;;;14.68;10.38;;;8.50;99.90;;;;;;5021425;28;20486;-82
2022/11/29 08:09:54;;;;;;;17.73;10.52;;;8.50;99.90;;;;;;5019457;28;20064;-81
2022/11/29 08:12:20;;;;;;;15.63;9.70;;;8.50;99.90;;;;;;5020672;28;20045;-82
2022/11/29 08:14:46;;;;;;;15.65;10.73;;;8.60;99.90;;;;;;5020617;28;20478;-82
2022/11/29 08:17:12;;;;;;;16.13;11.02;;;8.60;99.90;;;;;;5019692;28;20088;-82
2022/11/29 08:19:37;;;;;;;18.98;11.77;;;8.60;99.90;;;;;;5022213;28;20118;-83
2022/11/29 08:22:03;;;;;;;20.40;11.88;;;8.60;99.90;;;;;;5014027;28;20583;-83
2022/11/29 08:24:29;;;;;;;13.38;9.55;;;8.60;99.90;;;;;;5012859;28;20045;-81
2022/11/29 08:26:54;;;;;;;14.80;11.43;;;8.50;99.90;;;;;;5019676;28;20041;-81
2022/11/29 08:29:20;;;;;;;20.80;11.43;;;8.50;99.90;;;;;;5004622;28;20561;-83
2022/11/29 08:31:52;;;;;;;13.15;9.70;;;8.60;99.90;;;;;;5021262;28;20551;-82
2022/11/29 08:34:18;;;;;;;15.25;10.35;;;8.60;99.90;;;;;;5020241;28;20052;-79
2022/11/29 08:36:44;;;;;;;17.52;10.98;;;8.70;99.90;;;;;;5009926;28;20580;-80
2022/11/29 08:39:10;;;;;;;17.60;11.65;;;8.70;99.90;;;;;;5017397;28;20087;-81
2022/11/29 08:41:36;;;;;;;17.88;11.23;;;8.70;99.90;;;;;;5020790;28;20041;-81
2022/11/29 08:44:03;;;;;;;19.33;11.50;;;8.80;99.90;;;;;;5026965;28;20128;-80
2022/11/29 08:47:34;;;;;;;17.00;9.25;;;8.80;99.90;;;;;;5023033;28;20111;-80
2022/11/29 08:49:14;;;;;;;17.10;11.35;;;8.80;99.90;;;;;;5018995;28;20053;-83
2022/11/29 08:51:40;;;;;;;16.73;11.23;;;9.20;99.90;;;;;;5019026;28;20107;-79
2022/11/29 08:54:06;;;;;;;18.23;10.40;;;8.80;99.90;;;;;;5027053;28;20352;-78
2022/11/29 08:56:32;;;;;;;17.10;9.52;;;8.80;99.90;;;;;;5018542;28;20049;-79
2022/11/29 08:58:57;;;;;;;16.25;10.68;;;8.90;99.90;;;;;;5023968;28;20048;-79
2022/11/29 09:01:23;;;;;;;19.83;9.90;;;8.80;99.90;;;;;;5022122;28;20506;-85
2022/11/29 09:03:58;;;;;;;15.50;10.02;;;8.90;99.90;;;;;;5012397;28;20459;-82
2022/11/29 09:06:25;;;;;;;17.95;9.32;;;8.90;99.90;;;;;;5028622;28;20127;-82
2022/11/29 09:08:55;;;;;;;15.10;8.48;;;8.90;99.90;;;;;;5017802;28;20169;-82
2022/11/29 09:11:22;;;;;;;17.90;10.07;;;8.90;99.90;;;;;;5019702;28;20057;-82
2022/11/29 09:13:50;;;;;;;17.08;10.00;;;8.90;99.90;;;;;;5011444;28;20124;-82
2022/11/29 09:16:19;;;;;;;16.60;9.35;;;8.90;99.90;;;;;;5020085;28;20037;-83
2022/11/29 09:18:47;;;;;;;12.60;8.07;;;9.10;99.90;;;;;;5006657;28;20068;-82
2022/11/29 09:21:14;;;;;;;13.18;8.15;;;8.90;99.90;;;;;;5015325;28;20059;-85
2022/11/29 09:23:41;;;;;;;16.73;8.52;;;8.90;99.90;;;;;;5018209;28;20060;-84
2022/11/29 09:26:09;;;;;;;19.27;8.65;;;8.90;99.90;;;;;;5020838;28;20081;-82
2022/11/29 09:28:35;;;;;;;11.38;8.50;;;8.90;99.90;;;;;;5020327;28;20049;-83
2022/11/29 09:31:06;;;;;;;11.43;7.85;;;8.90;99.90;;;;;;5020136;28;20171;-82
2022/11/29 09:33:32;;;;;;;13.18;9.00;;;9.00;99.90;;;;;;5019643;28;20045;-84
2022/11/29 09:35:58;;;;;;;15.48;8.40;;;9.10;99.90;;;;;;5020038;28;20153;-83
2022/11/29 09:38:24;;;;;;;13.98;8.07;;;9.10;99.90;;;;;;5020923;28;20045;-83
2022/11/29 09:40:54;;;;;;;11.43;7.60;;;9.10;99.90;;;;;;5017650;28;20037;-82
2022/11/29 09:43:45;;;;;;;14.10;8.90;;;9.10;99.90;;;;;;5024370;28;20049;-82
2022/11/29 09:46:26;;;;;;;13.35;7.47;;;9.20;99.90;;;;;;5015489;28;20129;-84
2022/11/29 09:49:13;;;;;;;12.65;6.68;;;9.20;99.90;;;;;;5014300;28;20084;-82
2022/11/29 09:52:01;;;;;;;13.82;7.72;;;9.30;99.90;;;;;;5016413;28;20089;-83
2022/11/29 09:54:37;;;;;;;11.68;6.57;;;9.40;99.90;;;;;;5022537;28;20077;-89
2022/11/29 09:57:05;;;;;;;11.25;7.78;;;9.40;99.90;;;;;;5024503;28;20059;-88
2022/11/29 09:59:41;;;;;;;12.10;6.93;;;9.50;99.90;;;;;;5017987;28;20081;-82
2022/11/29 10:02:27;;;;;;;9.45;5.88;;;9.50;99.90;;;;;;5018740;28;20041;-82
2022/11/29 10:04:59;;;;;;;12.45;6.75;;;9.60;99.90;;;;;;5012551;28;20115;-83
2022/11/29 10:07:35;;;;;;;12.27;6.70;;;10.00;99.90;;;;;;5018362;28;20045;-83
2022/11/29 10:10:24;;;;;;;13.23;6.53;;;9.70;99.90;;;;;;5015729;28;20375;-84
2022/11/29 10:12:55;;;;;;;14.48;7.00;;;9.70;99.90;;;;;;5009853;28;20049;-84
2022/11/29 10:15:26;;;;;;;17.60;7.85;;;9.70;99.90;;;;;;5027518;28;20056;-82
2022/11/29 10:17:54;;;;;;;14.25;7.13;;;9.70;99.90;;;;;;5017860;28;20057;-82
2022/11/29 10:20:26;;;;;;;10.75;6.53;;;9.80;99.90;;;;;;5016260;28;20764;-83
2022/11/29 10:23:28;;;;;;;10.23;7.07;;;9.90;99.90;;;;;;5017230;28;20164;-84
2022/11/29 10:25:55;;;;;;;11.32;6.50;;;9.90;99.90;;;;;;5012774;28;20997;-84
2022/11/29 10:28:25;;;;;;;11.57;6.03;;;9.90;99.90;;;;;;5024585;28;20060;-86
2022/11/29 10:30:56;;;;;;;14.18;7.50;;;9.90;99.90;;;;;;5018294;28;20084;-90
2022/11/29 10:33:29;;;;;;;11.00;6.10;;;9.90;99.90;;;;;;5016596;28;20060;-87
2022/11/29 10:35:57;;;;;;;11.80;6.88;;;10.00;99.90;;;;;;5019012;28;20482;-85
2022/11/29 10:38:23;;;;;;;15.27;7.50;;;10.00;99.90;;;;;;5018795;28;20083;-83
2022/11/29 10:40:55;;;;;;;23.02;7.97;;;10.00;99.90;;;;;;5024280;28;20101;-84
2022/11/29 10:43:20;;;;;;;14.88;5.82;;;10.10;99.90;;;;;;5017512;28;20057;-86
2022/11/29 10:45:52;;;;;;;8.60;5.13;;;10.10;99.90;;;;;;5017939;28;20076;-84
2022/11/29 10:48:20;;;;;;;14.13;7.57;;;10.20;99.90;;;;;;5018519;28;20149;-86
2022/11/29 10:50:48;;;;;;;9.48;6.05;;;10.10;99.90;;;;;;5017255;28;20115;-84
2022/11/29 10:53:16;;;;;;;8.43;5.82;;;10.20;99.90;;;;;;5017603;28;20228;-84
2022/11/29 10:55:52;;;;;;;14.30;7.47;;;10.20;99.90;;;;;;5010269;28;20131;-84
2022/11/29 10:58:27;;;;;;;9.80;6.78;;;10.20;99.90;;;;;;5014694;28;20083;-86
2022/11/29 11:01:07;;;;;;;11.80;6.10;;;10.20;99.90;;;;;;5013670;28;20045;-88
2022/11/29 11:03:40;;;;;;;12.15;5.57;;;10.30;99.90;;;;;;5016316;28;20490;-86
2022/11/29 11:06:19;;;;;;;;;;;10.20;99.90;;;;;;5012545;28;20049;-83
2022/11/29 11:08:47;;;;;;;16.38;7.05;;;10.20;99.90;;;;;;5014769;28;19928;-84
2022/11/29 11:11:21;;;;;;;16.52;7.25;;;10.20;99.90;;;;;;5012957;28;20056;-86
2022/11/29 11:14:16;;;;;;;18.90;7.13;;;10.30;99.90;;;;;;5015783;28;20254;-86
2022/11/29 11:16:41;;;;;;;10.50;6.15;;;10.30;99.90;;;;;;5000834;28;20057;-86
2022/11/29 11:19:31;;;;;;;12.57;6.68;;;10.30;99.90;;;;;;5010859;28;20584;-88
2022/11/29 11:21:59;;;;;;;7.45;6.13;;;10.50;99.90;;;;;;5015725;28;20392;-85
2022/11/29 11:24:28;;;;;;;12.50;6.68;;;10.50;99.90;;;;;;5020462;28;20041;-85
2022/11/29 11:26:55;;;;;;;11.25;6.20;;;10.60;99.90;;;;;;5018076;28;20481;-86
2022/11/29 11:29:24;;;;;;;14.30;7.97;;;10.60;99.90;;;;;;5009277;28;20052;-85
2022/11/29 11:31:54;;;;;;;11.65;6.22;;;10.60;99.90;;;;;;5025285;28;21000;-88
2022/11/29 11:34:34;;;;;;;13.45;6.32;;;10.70;99.90;;;;;;5020392;28;20045;-88
2022/11/29 11:37:18;;;;;;;12.23;6.93;;;10.70;99.90;;;;;;5013205;28;20153;-85
2022/11/29 11:39:46;;;;;;;11.30;7.70;;;10.80;99.90;;;;;;5018451;28;20448;-86
2022/11/29 11:42:36;;;;;;;13.38;7.10;;;10.90;99.90;;;;;;5018485;28;20052;-84
2022/11/29 11:45:11;;;;;;;10.60;7.50;;;10.90;99.90;;;;;;5012081;28;20525;-86
2022/11/29 11:48:15;;;;;;;10.60;6.68;;;10.80;99.90;;;;;;5016971;28;20054;-85
2022/11/29 11:50:51;;;;;;;11.82;6.95;;;10.80;99.90;;;;;;4998117;28;20068;-85
2022/11/29 11:53:26;;;;;;;16.15;7.80;;;10.80;99.90;;;;;;5014052;28;20498;-86
2022/11/29 11:55:57;;;;;;;11.85;6.78;;;10.80;99.90;;;;;;5018490;28;20052;-87
2022/11/29 11:58:27;;;;;;;10.57;6.15;;;10.90;99.90;;;;;;5013632;28;20870;-87
2022/11/29 12:00:56;;;;;;;10.50;6.95;;;10.90;99.90;;;;;;5014410;28;20084;-88
2022/11/29 12:03:44;;;;;;;12.70;8.32;;;10.90;99.90;;;;;;5015278;28;20049;-88
2022/11/29 12:06:27;;;;;;;11.93;6.85;;;10.80;99.90;;;;;;5012621;28;20123;-84
2022/11/29 12:09:29;;;;;;;9.98;6.95;;;10.80;99.90;;;;;;5015492;28;20542;-83
2022/11/29 12:12:12;;;;;;;12.50;7.13;;;10.60;99.90;;;;;;5008321;28;20045;-82
2022/11/29 12:15:06;;;;;;;10.40;6.88;;;10.20;99.90;;;;;;5015066;28;20141;-87
2022/11/29 12:17:34;;;;;;;10.25;6.90;;;10.40;99.90;;;;;;5015389;28;20183;-84
2022/11/29 12:20:25;;;;;;;15.02;7.88;;;10.40;99.90;;;;;;5009508;28;20053;-86
2022/11/29 12:23:11;;;;;;;8.90;6.65;;;10.40;99.90;;;;;;5014877;28;20056;-87
2022/11/29 12:25:51;;;;;;;11.07;6.65;;;10.40;99.90;;;;;;5014195;28;20041;-83
2022/11/29 12:28:18;;;;;;;11.93;7.07;;;10.30;99.90;;;;;;5016976;28;20049;-84
2022/11/29 12:31:10;;;;;;;9.85;7.00;;;10.30;99.90;;;;;;5015921;28;20053;-86
2022/11/29 12:34:29;;;;;;;9.95;6.80;;;10.40;99.90;;;;;;5019644;28;20048;-89
2022/11/29 12:37:24;;;;;;;8.75;6.60;;;10.30;99.90;;;;;;4943025;28;20130;-88
2022/11/29 12:40:19;;;;;;;10.02;6.25;;;10.40;99.90;;;;;;5013629;28;20085;-87
2022/11/29 12:42:54;;;;;;;11.80;5.78;;;10.40;99.90;;;;;;4959003;28;20112;-86
2022/11/29 12:45:34;;;;;;;12.10;7.40;;;10.40;99.90;;;;;;5019357;28;20048;-85
2022/11/29 12:48:18;;;;;;;9.68;6.60;;;10.40;99.90;;;;;;5019123;28;20147;-87
2022/11/29 12:50:56;;;;;;;10.60;6.78;;;10.40;99.90;;;;;;5013931;28;20068;-87
2022/11/29 12:53:47;;;;;;;10.27;7.75;;;10.40;99.90;;;;;;5016903;28;20049;-84
2022/11/29 12:56:20;;;;;;;7.90;6.65;;;10.30;99.90;;;;;;5015534;28;20045;-86
2022/11/29 12:59:08;;;;;;;9.52;6.90;;;10.20;99.90;;;;;;5017139;28;20052;-83
2022/11/29 13:02:21;;;;;;;12.48;7.20;;;10.20;99.90;;;;;;5018856;28;20457;-86
2022/11/29 13:05:10;;;;;;;11.63;7.03;;;10.00;99.90;;;;;;5014293;28;20050;-85
2022/11/29 13:08:02;;;;;;;7.95;7.13;;;9.90;99.90;;;;;;5012703;28;20077;-86
2022/11/29 13:11:02;;;;;;;13.63;6.97;;;9.80;99.90;;;;;;5014023;28;20120;-85
2022/11/29 13:13:42;;;;;;;9.85;7.35;;;9.80;99.90;;;;;;5019406;28;20072;-84
2022/11/29 13:16:08;;;;;;;12.10;7.78;;;9.80;99.90;;;;;;5012814;28;21075;-85
2022/11/29 13:18:40;;;;;;;9.43;7.22;;;9.80;99.90;;;;;;5010895;28;20121;-85
2022/11/29 13:21:23;;;;;;;11.35;7.82;;;9.80;99.90;;;;;;5022566;28;20056;-84
2022/11/29 13:24:00;;;;;;;9.43;6.60;;;9.80;99.90;;;;;;5024316;28;20048;-83
2022/11/29 13:26:28;;;;;;;9.90;7.45;;;9.70;99.90;;;;;;5016257;28;20929;-83
2022/11/29 13:28:54;;;;;;;12.45;8.45;;;9.60;99.90;;;;;;5019019;28;20131;-84
2022/11/29 13:31:23;;;;;;;9.65;7.20;;;9.60;99.90;;;;;;5015719;28;20052;-83